Time;durP1;ratioP1;P1;durP2;ratioP2;P2;SDS_P1;SDS_P2;PMS_P1;PMS_P2;Temp;Humidity;BMP_temperature;BMP_pressure;BME280_temperature;BME280_humidity;BME280_pressure;Samples;Min_cycle;Max_cycle;Signal;HPM_P1;HPM_P2
2023/01/24 00:01:03;;;;;;;2.80;2.70;;;4.50;99.90;;;;;;5057016;28;20718;-65
2023/01/24 00:03:30;;;;;;;2.20;2.10;;;4.50;99.90;;;;;;5053694;28;20708;-66
2023/01/24 00:05:57;;;;;;;2.03;1.93;;;4.50;99.90;;;;;;5053959;28;20207;-66
2023/01/24 00:08:23;;;;;;;2.20;2.10;;;4.50;99.90;;;;;;5055128;28;20676;-67
2023/01/24 00:10:59;;;;;;;2.40;2.30;;;4.50;99.90;;;;;;5054966;28;20239;-66
2023/01/24 00:13:26;;;;;;;2.20;2.10;;;4.50;99.90;;;;;;5055059;28;20268;-67
2023/01/24 00:16:01;;;;;;;2.30;2.20;;;4.50;99.90;;;;;;5054218;28;20214;-67
2023/01/24 00:18:28;;;;;;;2.23;2.13;;;4.60;99.90;;;;;;5054940;28;20215;-67
2023/01/24 00:21:01;;;;;;;2.40;2.30;;;4.60;99.90;;;;;;5054785;28;20219;-68
2023/01/24 00:23:28;;;;;;;2.30;2.20;;;4.60;99.90;;;;;;5055025;28;20705;-66
2023/01/24 00:25:56;;;;;;;2.20;2.10;;;4.60;99.90;;;;;;5054232;28;20219;-65
2023/01/24 00:28:23;;;;;;;2.20;2.10;;;4.60;99.90;;;;;;5054515;28;20724;-68
2023/01/24 00:30:50;;;;;;;2.70;2.60;;;4.60;99.90;;;;;;5054559;28;20231;-65
2023/01/24 00:33:17;;;;;;;2.20;2.10;;;4.60;99.90;;;;;;5054126;28;20215;-66
2023/01/24 00:35:44;;;;;;;2.40;2.30;;;4.60;99.90;;;;;;5053051;28;20712;-66
2023/01/24 00:38:11;;;;;;;2.77;2.57;;;4.60;99.90;;;;;;5053605;28;20204;-66
2023/01/24 00:40:37;;;;;;;2.30;2.20;;;4.60;99.90;;;;;;5056186;28;20228;-66
2023/01/24 00:43:06;;;;;;;2.30;2.20;;;4.60;99.90;;;;;;5053880;28;20608;-64
2023/01/24 00:45:35;;;;;;;2.63;2.53;;;4.50;99.90;;;;;;5052724;28;20224;-65
2023/01/24 00:48:02;;;;;;;2.60;2.50;;;4.50;99.90;;;;;;5052889;28;20210;-67
2023/01/24 00:50:29;;;;;;;2.30;2.20;;;4.50;99.90;;;;;;5052534;28;20232;-67
2023/01/24 00:52:55;;;;;;;2.30;2.20;;;4.60;99.90;;;;;;5053139;28;20207;-66
2023/01/24 00:55:22;;;;;;;2.27;2.17;;;4.60;99.90;;;;;;5052478;28;20214;-66
2023/01/24 00:57:49;;;;;;;2.23;2.13;;;4.70;99.90;;;;;;5053074;28;20207;-66
2023/01/24 01:00:18;;;;;;;2.23;2.13;;;4.70;99.90;;;;;;5058236;28;20220;-65
2023/01/24 01:02:45;;;;;;;2.43;2.33;;;4.70;99.90;;;;;;5069214;28;20202;-65
2023/01/24 01:05:12;;;;;;;2.30;2.20;;;4.80;99.90;;;;;;5056251;28;20302;-68
2023/01/24 01:07:38;;;;;;;2.57;2.47;;;4.70;99.90;;;;;;5054831;28;20208;-67
2023/01/24 01:10:06;;;;;;;2.30;2.20;;;4.70;99.90;;;;;;5054373;28;20204;-66
2023/01/24 01:12:33;;;;;;;2.33;2.23;;;4.70;99.90;;;;;;5054238;28;20241;-66
2023/01/24 01:14:59;;;;;;;2.17;2.07;;;4.70;99.90;;;;;;5053115;28;20646;-66
2023/01/24 01:17:28;;;;;;;2.50;2.40;;;4.70;99.90;;;;;;5053668;28;20220;-66
2023/01/24 01:19:55;;;;;;;2.10;2.00;;;4.70;99.90;;;;;;5053967;28;20214;-68
2023/01/24 01:22:22;;;;;;;2.40;2.30;;;4.70;99.90;;;;;;5053390;28;20203;-66
2023/01/24 01:24:49;;;;;;;2.80;2.70;;;4.70;99.90;;;;;;5053796;28;20224;-68
2023/01/24 01:27:16;;;;;;;2.27;2.17;;;4.70;99.90;;;;;;5054090;28;20208;-66
2023/01/24 01:29:43;;;;;;;2.43;2.33;;;4.70;99.90;;;;;;5054809;28;20214;-67
2023/01/24 01:32:09;;;;;;;2.43;2.33;;;4.80;99.90;;;;;;5053478;28;20223;-64
2023/01/24 01:34:38;;;;;;;2.53;2.43;;;4.80;99.90;;;;;;5053278;28;20218;-66
2023/01/24 01:37:04;;;;;;;2.20;2.10;;;4.90;99.90;;;;;;5053082;28;20204;-67
2023/01/24 01:39:31;;;;;;;1.80;1.70;;;4.90;99.90;;;;;;5053100;28;20203;-67
2023/01/24 01:41:58;;;;;;;2.40;2.30;;;4.90;99.90;;;;;;5053145;28;20227;-66
2023/01/24 01:44:40;;;;;;;2.37;2.27;;;4.90;99.90;;;;;;5053393;28;20306;-64
2023/01/24 01:47:24;;;;;;;2.20;2.10;;;4.90;99.90;;;;;;5052722;28;20208;-67
2023/01/24 01:49:57;;;;;;;2.50;2.30;;;4.90;99.90;;;;;;5054620;28;20210;-65
2023/01/24 01:52:28;;;;;;;2.20;2.10;;;4.90;99.90;;;;;;5054310;28;20218;-64
2023/01/24 01:54:57;;;;;;;2.03;1.93;;;4.90;99.90;;;;;;5053122;28;20254;-66
2023/01/24 01:57:29;;;;;;;2.40;2.30;;;5.00;99.90;;;;;;5052663;28;20208;-66
2023/01/24 02:00:02;;;;;;;2.60;2.40;;;5.00;99.90;;;;;;5052692;28;20204;-67
2023/01/24 02:02:31;;;;;;;2.83;2.63;;;4.90;99.90;;;;;;5052965;28;20203;-66
2023/01/24 02:05:02;;;;;;;2.20;2.10;;;4.80;99.90;;;;;;5051205;28;20228;-68
2023/01/24 02:07:32;;;;;;;2.40;2.30;;;4.90;99.90;;;;;;5051468;28;20218;-66
2023/01/24 02:09:59;;;;;;;2.57;2.47;;;4.90;99.90;;;;;;5051868;28;20684;-65
2023/01/24 02:12:28;;;;;;;2.40;2.30;;;4.90;99.90;;;;;;5051617;28;20200;-67
2023/01/24 02:17:42;;;;;;;2.70;2.60;;;4.70;99.90;;;;;;5031739;28;20210;-67
2023/01/24 02:20:23;;;;;;;2.53;2.43;;;4.80;99.90;;;;;;5031529;28;20675;-65
2023/01/24 02:22:59;;;;;;;2.30;2.20;;;4.70;99.90;;;;;;5031779;28;20235;-67
2023/01/24 02:25:34;;;;;;;2.60;2.50;;;4.80;99.90;;;;;;5031753;28;20587;-66
2023/01/24 02:28:03;;;;;;;2.90;2.80;;;4.80;99.90;;;;;;5032160;28;20258;-65
2023/01/24 02:30:30;;;;;;;2.53;2.33;;;4.70;99.90;;;;;;5032479;28;20224;-65
2023/01/24 02:32:57;;;;;;;2.60;2.50;;;4.60;99.90;;;;;;5031621;28;20239;-66
2023/01/24 02:35:26;;;;;;;2.80;2.60;;;4.60;99.90;;;;;;5032682;28;20200;-66
2023/01/24 02:37:54;;;;;;;3.00;2.80;;;4.50;99.90;;;;;;5032771;28;20213;-66
2023/01/24 02:40:22;;;;;;;2.67;2.57;;;4.50;99.90;;;;;;5032577;28;20237;-65
2023/01/24 02:42:49;;;;;;;2.60;2.50;;;4.40;99.90;;;;;;5029967;28;20214;-65
2023/01/24 02:45:24;;;;;;;2.43;2.33;;;4.50;99.90;;;;;;5031421;28;20224;-70
2023/01/24 02:47:52;;;;;;;2.90;2.80;;;4.40;99.90;;;;;;5046547;28;20198;-65
2023/01/24 02:50:21;;;;;;;2.60;2.50;;;4.50;99.90;;;;;;5036811;28;20230;-66
2023/01/24 02:58:05;;;;;;;2.73;2.63;;;4.40;99.90;;;;;;5030786;28;20258;-66
2023/01/24 02:58:21;;;;;;;2.40;2.30;;;4.40;99.90;;;;;;5031257;28;20205;-65
2023/01/24 03:00:49;;;;;;;2.60;2.47;;;4.50;99.90;;;;;;5031239;28;20248;-65
2023/01/24 03:03:16;;;;;;;2.40;2.30;;;4.40;99.90;;;;;;5031003;28;20665;-66
2023/01/24 03:05:56;;;;;;;2.43;2.33;;;4.40;99.90;;;;;;5030194;28;20307;-66
2023/01/24 03:08:23;;;;;;;2.70;2.57;;;4.50;99.90;;;;;;5030572;28;20212;-65
2023/01/24 03:10:50;;;;;;;2.77;2.67;;;4.40;99.90;;;;;;5030371;28;20229;-67
2023/01/24 03:35:14;;;;;;;2.67;2.57;;;4.50;99.90;;;;;;5030715;28;20200;-65
2023/01/24 03:40:26;;;;;;;3.03;2.83;;;4.60;99.90;;;;;;5030923;28;20223;-67
2023/01/24 03:42:53;;;;;;;3.13;2.93;;;4.50;99.90;;;;;;5031356;28;20218;-64
2023/01/24 03:45:22;;;;;;;2.60;2.50;;;4.50;99.90;;;;;;5030780;28;20235;-68
2023/01/24 03:48:04;;;;;;;2.70;2.60;;;4.50;99.90;;;;;;5032114;28;20218;-65
2023/01/24 03:53:18;;;;;;;2.93;2.83;;;4.40;99.90;;;;;;5030032;28;20199;-65
2023/01/24 03:55:45;;;;;;;2.70;2.60;;;4.40;99.90;;;;;;5029862;28;20215;-67
2023/01/24 03:58:13;;;;;;;2.40;2.30;;;4.30;99.90;;;;;;5029624;28;20946;-66
2023/01/24 04:00:40;;;;;;;2.33;2.23;;;4.30;99.90;;;;;;5029978;28;20238;-64
2023/01/24 04:03:08;;;;;;;2.40;2.30;;;4.40;99.90;;;;;;5029781;28;20667;-65
2023/01/24 04:05:36;;;;;;;2.60;2.50;;;4.40;99.90;;;;;;5029430;28;20228;-67
2023/01/24 04:08:03;;;;;;;2.97;2.77;;;4.40;99.90;;;;;;5029760;28;20578;-66
2023/01/24 04:10:31;;;;;;;2.90;2.70;;;4.50;99.90;;;;;;5029433;28;20282;-65
2023/01/24 04:12:58;;;;;;;3.00;2.80;;;4.50;99.90;;;;;;5029806;28;20214;-65
2023/01/24 04:15:26;;;;;;;2.87;2.67;;;4.50;99.90;;;;;;5029770;28;20240;-66
2023/01/24 04:17:56;;;;;;;2.53;2.43;;;4.50;99.90;;;;;;5029583;28;20208;-67
2023/01/24 04:20:25;;;;;;;2.40;2.30;;;4.40;99.90;;;;;;5029157;28;20228;-66
2023/01/24 04:22:52;;;;;;;2.40;2.30;;;4.40;99.90;;;;;;5030618;28;20299;-68
2023/01/24 04:25:19;;;;;;;2.70;2.60;;;4.50;99.90;;;;;;5031169;28;20302;-66
2023/01/24 04:27:46;;;;;;;2.97;2.77;;;4.50;99.90;;;;;;5030642;28;20215;-66
2023/01/24 04:30:15;;;;;;;2.63;2.53;;;4.50;99.90;;;;;;5030934;28;20205;-67
2023/01/24 04:32:42;;;;;;;2.40;2.30;;;4.50;99.90;;;;;;5038382;28;20216;-66
2023/01/24 04:35:16;;;;;;;2.33;2.23;;;4.40;99.90;;;;;;5039542;28;20213;-66
2023/01/24 04:37:44;;;;;;;2.40;2.30;;;4.50;99.90;;;;;;5031191;28;20226;-66
2023/01/24 04:40:12;;;;;;;2.37;2.27;;;4.50;99.90;;;;;;5031338;28;20211;-65
2023/01/24 04:42:39;;;;;;;3.00;2.80;;;4.50;99.90;;;;;;5035028;28;20201;-66
2023/01/24 04:45:07;;;;;;;2.83;2.70;;;4.60;99.90;;;;;;5047434;28;20288;-65
2023/01/24 04:47:34;;;;;;;3.10;2.90;;;4.60;99.90;;;;;;5053306;28;20287;-64
2023/01/24 04:50:01;;;;;;;2.70;2.60;;;4.50;99.90;;;;;;5053677;28;20216;-64
2023/01/24 04:52:28;;;;;;;2.77;2.67;;;4.50;99.90;;;;;;5055080;28;20208;-65
2023/01/24 04:54:56;;;;;;;2.53;2.43;;;4.40;99.90;;;;;;5056654;28;20243;-68
2023/01/24 04:57:23;;;;;;;2.83;2.73;;;4.40;99.90;;;;;;5048745;28;20243;-66
2023/01/24 04:59:49;;;;;;;2.90;2.80;;;4.50;99.90;;;;;;5051422;28;20236;-66
2023/01/24 05:02:16;;;;;;;3.27;3.07;;;4.50;99.90;;;;;;5034164;28;20235;-66
2023/01/24 05:04:43;;;;;;;2.67;2.57;;;4.40;99.90;;;;;;5033077;28;20315;-67
2023/01/24 05:07:10;;;;;;;2.63;2.53;;;4.40;99.90;;;;;;5033377;28;20207;-67
2023/01/24 05:09:37;;;;;;;2.70;2.60;;;4.30;99.90;;;;;;5035354;28;20209;-66
2023/01/24 05:12:06;;;;;;;2.90;2.80;;;4.30;99.90;;;;;;5033913;28;20224;-66
2023/01/24 05:14:33;;;;;;;2.93;2.73;;;4.30;99.90;;;;;;5034954;28;20671;-67
2023/01/24 05:16:59;;;;;;;2.77;2.67;;;4.40;99.90;;;;;;5034540;28;20204;-68
2023/01/24 05:19:26;;;;;;;3.07;2.87;;;4.30;99.90;;;;;;5033896;28;20215;-65
2023/01/24 05:21:53;;;;;;;3.47;2.80;;;4.20;99.90;;;;;;5033327;28;20231;-66
2023/01/24 05:24:20;;;;;;;2.90;2.80;;;4.20;99.90;;;;;;5032666;28;20209;-64
2023/01/24 05:26:47;;;;;;;3.17;3.00;;;4.30;99.90;;;;;;5032319;28;20232;-65
2023/01/24 05:29:15;;;;;;;3.30;3.10;;;4.20;99.90;;;;;;5032751;28;20208;-67
2023/01/24 05:31:42;;;;;;;2.90;2.80;;;4.10;99.90;;;;;;5033283;28;20232;-66
2023/01/24 05:34:09;;;;;;;3.10;2.90;;;4.30;99.90;;;;;;5033659;28;20215;-66
2023/01/24 05:36:36;;;;;;;3.67;3.47;;;4.10;99.90;;;;;;5033503;28;20243;-66
2023/01/24 05:39:02;;;;;;;3.57;3.37;;;4.10;99.90;;;;;;5033840;28;20208;-65
2023/01/24 05:41:29;;;;;;;4.07;3.87;;;4.00;99.90;;;;;;5033425;28;20225;-65
2023/01/24 05:43:56;;;;;;;4.60;4.30;;;4.00;99.90;;;;;;5033756;28;20200;-67
2023/01/24 05:46:24;;;;;;;4.10;3.90;;;4.00;99.90;;;;;;5033660;28;20315;-66
2023/01/24 05:48:51;;;;;;;3.43;3.23;;;4.00;99.90;;;;;;5043954;28;20227;-66
2023/01/24 05:51:20;;;;;;;3.13;2.93;;;4.00;99.90;;;;;;5074835;28;20230;-65
2023/01/24 05:53:47;;;;;;;3.47;3.27;;;4.00;99.90;;;;;;5072645;28;20314;-64
2023/01/24 05:56:16;;;;;;;3.40;3.20;;;4.00;99.90;;;;;;5051491;28;20669;-64
2023/01/24 05:58:44;;;;;;;3.20;3.00;;;4.00;99.90;;;;;;5039826;28;20230;-65
2023/01/24 06:01:13;;;;;;;3.30;3.10;;;4.00;99.90;;;;;;5040635;28;20220;-65
2023/01/24 06:03:42;;;;;;;3.50;3.30;;;4.00;99.90;;;;;;5050235;28;20200;-65
2023/01/24 06:06:10;;;;;;;3.43;3.23;;;4.00;99.90;;;;;;5050987;28;20318;-66
2023/01/24 06:08:38;;;;;;;2.97;2.83;;;4.00;99.90;;;;;;5052032;28;20230;-67
2023/01/24 06:11:06;;;;;;;3.70;3.50;;;3.90;99.90;;;;;;5051264;28;20228;-65
2023/01/24 06:13:33;;;;;;;3.20;3.00;;;3.90;99.90;;;;;;5058402;28;20237;-65
2023/01/24 06:16:05;;;;;;;3.30;3.10;;;4.00;99.90;;;;;;5066008;28;20200;-66
2023/01/24 06:18:32;;;;;;;3.53;3.33;;;4.00;99.90;;;;;;5060369;28;20216;-69
2023/01/24 06:21:06;;;;;;;3.23;3.03;;;3.90;99.90;;;;;;5055539;28;20231;-65
2023/01/24 06:23:33;;;;;;;2.97;2.87;;;3.90;99.90;;;;;;5054305;28;20692;-65
2023/01/24 06:26:00;;;;;;;3.33;3.13;;;3.90;99.90;;;;;;5053466;28;20726;-65
2023/01/24 06:28:27;;;;;;;3.13;2.93;;;3.80;99.90;;;;;;5056805;28;20200;-64
2023/01/24 06:31:04;;;;;;;3.43;3.23;;;3.90;99.90;;;;;;5059046;28;20273;-65
2023/01/24 06:33:46;;;;;;;4.00;3.80;;;3.90;99.90;;;;;;5060113;28;20207;-66
2023/01/24 06:36:40;;;;;;;3.47;3.27;;;3.90;99.90;;;;;;5054239;28;20202;-63
2023/01/24 06:39:13;;;;;;;4.20;3.87;;;3.80;99.90;;;;;;5053983;28;20203;-66
2023/01/24 06:41:40;;;;;;;4.40;4.10;;;3.80;99.90;;;;;;5051906;28;20232;-65
2023/01/24 06:44:09;;;;;;;4.17;3.63;;;3.80;99.90;;;;;;5051297;28;20675;-64
2023/01/24 06:46:36;;;;;;;3.70;3.50;;;3.80;99.90;;;;;;5052045;28;20588;-65
2023/01/24 06:49:03;;;;;;;3.70;3.50;;;3.80;99.90;;;;;;5052186;28;20709;-67
2023/01/24 06:51:31;;;;;;;3.87;3.67;;;3.80;99.90;;;;;;5051443;28;20230;-65
2023/01/24 06:53:58;;;;;;;3.80;3.60;;;3.80;99.90;;;;;;5050151;28;20204;-65
2023/01/24 06:56:24;;;;;;;4.13;3.83;;;3.80;99.90;;;;;;5050617;28;20204;-65
2023/01/24 06:58:51;;;;;;;3.57;3.37;;;3.80;99.90;;;;;;5050952;28;20204;-65
2023/01/24 07:01:18;;;;;;;3.30;3.10;;;3.80;99.90;;;;;;5053839;28;20250;-64
2023/01/24 07:03:45;;;;;;;3.30;3.10;;;3.90;99.90;;;;;;5050458;28;20212;-68
2023/01/24 07:06:11;;;;;;;4.03;3.83;;;3.90;99.90;;;;;;5051786;28;20807;-68
2023/01/24 07:08:40;;;;;;;3.70;3.50;;;3.80;99.90;;;;;;5052017;28;20204;-66
2023/01/24 07:11:07;;;;;;;4.13;3.93;;;3.90;99.90;;;;;;5051835;28;20272;-64
2023/01/24 07:13:33;;;;;;;3.87;3.67;;;3.80;99.90;;;;;;5051292;28;20762;-65
2023/01/24 07:16:01;;;;;;;4.17;3.87;;;3.80;99.90;;;;;;5051320;28;20257;-64
2023/01/24 07:18:28;;;;;;;3.50;3.30;;;3.90;99.90;;;;;;5050860;28;20212;-64
2023/01/24 07:20:56;;;;;;;3.83;3.63;;;3.90;99.90;;;;;;5050764;28;20559;-67
2023/01/24 07:23:25;;;;;;;3.23;3.03;;;3.90;99.90;;;;;;5051096;28;20210;-65
2023/01/24 07:25:53;;;;;;;3.93;3.73;;;3.90;99.90;;;;;;5049730;28;20231;-68
2023/01/24 07:28:20;;;;;;;3.50;3.30;;;3.90;99.90;;;;;;5050249;28;20682;-66
2023/01/24 07:30:48;;;;;;;3.47;3.27;;;4.00;99.90;;;;;;5050265;28;20227;-65
2023/01/24 07:33:15;;;;;;;3.23;3.03;;;4.10;99.90;;;;;;5049577;28;20207;-67
2023/01/24 07:35:42;;;;;;;3.43;3.23;;;4.10;99.90;;;;;;5051300;28;20208;-69
2023/01/24 07:38:11;;;;;;;3.77;3.47;;;4.10;99.90;;;;;;5051457;28;20627;-65
2023/01/24 07:40:38;;;;;;;3.47;3.27;;;4.00;99.90;;;;;;5050098;28;20228;-68
2023/01/24 07:43:07;;;;;;;3.53;3.33;;;3.90;99.90;;;;;;5049868;28;20226;-64
2023/01/24 07:45:35;;;;;;;3.67;3.47;;;4.00;99.90;;;;;;5049261;28;20684;-65
2023/01/24 07:48:02;;;;;;;3.97;3.77;;;4.00;99.90;;;;;;5050190;28;20215;-68
2023/01/24 07:50:31;;;;;;;3.83;3.60;;;4.00;99.90;;;;;;5050910;28;20223;-64
2023/01/24 07:52:58;;;;;;;3.30;3.20;;;4.10;99.90;;;;;;5048886;28;20265;-66
2023/01/24 07:55:25;;;;;;;11.43;3.90;;;4.20;99.90;;;;;;5049633;28;20369;-65
2023/01/24 07:57:52;;;;;;;4.07;3.77;;;4.20;99.90;;;;;;5050124;28;20809;-65
2023/01/24 08:00:21;;;;;;;3.80;3.60;;;4.20;99.90;;;;;;5055775;28;20259;-67
2023/01/24 08:02:49;;;;;;;3.40;3.20;;;4.00;99.90;;;;;;5069196;28;20215;-65
2023/01/24 08:05:16;;;;;;;3.40;3.20;;;4.00;99.90;;;;;;5053193;28;20262;-67
2023/01/24 08:07:43;;;;;;;3.20;3.00;;;4.00;99.90;;;;;;5050668;28;20237;-66
2023/01/24 08:10:11;;;;;;;3.53;3.33;;;4.10;99.90;;;;;;5050148;28;20214;-66
2023/01/24 08:12:37;;;;;;;3.40;3.20;;;4.20;99.90;;;;;;5051085;28;20685;-64
2023/01/24 08:15:06;;;;;;;4.03;3.73;;;4.30;99.90;;;;;;5051607;28;20210;-64
2023/01/24 08:17:36;;;;;;;3.80;3.60;;;4.30;99.90;;;;;;5050298;28;20204;-65
2023/01/24 08:20:04;;;;;;;3.33;3.13;;;4.30;99.90;;;;;;5049684;28;20273;-70
2023/01/24 08:22:31;;;;;;;3.50;3.30;;;4.20;99.90;;;;;;5050741;28;20211;-63
2023/01/24 08:24:58;;;;;;;3.77;3.53;;;4.20;99.90;;;;;;5050974;28;20208;-66
2023/01/24 08:27:24;;;;;;;3.60;3.40;;;4.30;99.90;;;;;;5053656;28;20610;-66
2023/01/24 08:29:51;;;;;;;3.60;3.40;;;4.30;99.90;;;;;;5054182;28;20238;-67
2023/01/24 08:32:18;;;;;;;3.10;2.90;;;4.30;99.90;;;;;;5061528;28;20219;-64
2023/01/24 08:34:47;;;;;;;3.47;3.27;;;4.40;99.90;;;;;;5061864;28;20208;-65
2023/01/24 08:37:13;;;;;;;3.70;3.50;;;4.40;99.90;;;;;;5055116;28;20291;-66
2023/01/24 08:39:40;;;;;;;3.70;3.50;;;4.30;99.90;;;;;;5054034;28;20294;-65
2023/01/24 08:42:07;;;;;;;3.70;3.40;;;4.30;99.90;;;;;;5053720;28;20219;-65
2023/01/24 08:44:34;;;;;;;3.60;3.40;;;4.30;99.90;;;;;;5053650;28;20243;-66
2023/01/24 08:47:01;;;;;;;3.70;3.50;;;4.20;99.90;;;;;;5053221;28;20224;-64
2023/01/24 08:49:28;;;;;;;3.70;3.50;;;4.10;99.90;;;;;;5053377;28;20208;-70
2023/01/24 08:51:58;;;;;;;3.60;3.40;;;4.10;99.90;;;;;;5054122;28;20226;-67
2023/01/24 08:54:25;;;;;;;3.47;3.27;;;4.10;99.90;;;;;;5054269;28;20807;-66
2023/01/24 08:56:52;;;;;;;3.73;3.53;;;4.20;99.90;;;;;;5055312;28;20223;-67
2023/01/24 08:59:19;;;;;;;3.47;3.27;;;4.20;99.90;;;;;;5054920;28;20215;-66
2023/01/24 09:01:46;;;;;;;3.83;3.60;;;4.20;99.90;;;;;;5054159;28;20227;-66
2023/01/24 09:04:13;;;;;;;4.40;4.10;;;4.20;99.90;;;;;;5054624;28;20204;-66
2023/01/24 09:06:40;;;;;;;4.20;3.90;;;4.20;99.90;;;;;;5054149;28;20277;-65
2023/01/24 09:09:08;;;;;;;3.70;3.50;;;4.10;99.90;;;;;;5054486;28;20204;-65
2023/01/24 09:11:35;;;;;;;3.90;3.70;;;4.20;99.90;;;;;;5054313;28;20253;-65
2023/01/24 09:14:02;;;;;;;3.57;3.30;;;4.30;99.90;;;;;;5054611;28;20230;-65
2023/01/24 09:16:29;;;;;;;3.57;3.37;;;4.40;99.90;;;;;;5053100;28;20663;-66
2023/01/24 09:18:56;;;;;;;3.80;3.60;;;4.30;99.90;;;;;;5053134;28;20215;-66
2023/01/24 09:21:23;;;;;;;3.80;3.60;;;4.20;99.90;;;;;;5053017;28;20725;-67
2023/01/24 09:23:50;;;;;;;3.57;3.37;;;4.30;99.90;;;;;;5053571;28;20227;-63
2023/01/24 09:26:18;;;;;;;3.60;3.40;;;4.30;99.90;;;;;;5053247;28;20240;-68
2023/01/24 09:28:44;;;;;;;3.37;3.17;;;4.30;99.90;;;;;;5052872;28;20667;-65
2023/01/24 09:31:12;;;;;;;3.60;3.40;;;4.30;99.90;;;;;;5053104;28;20251;-66
2023/01/24 09:33:39;;;;;;;3.97;3.77;;;4.30;99.90;;;;;;5052783;28;20204;-68
2023/01/24 09:36:07;;;;;;;4.17;3.87;;;4.40;99.90;;;;;;5052626;28;20214;-65
2023/01/24 09:38:35;;;;;;;4.00;3.80;;;4.40;99.90;;;;;;5052852;28;20218;-65
2023/01/24 09:41:11;;;;;;;3.93;3.70;;;4.30;99.90;;;;;;5052958;28;20234;-65
2023/01/24 09:43:46;;;;;;;4.07;3.87;;;4.40;99.90;;;;;;5052831;28;20203;-65
2023/01/24 09:46:35;;;;;;;3.83;3.53;;;4.40;99.90;;;;;;5058906;28;20207;-67
2023/01/24 09:49:12;;;;;;;3.67;3.47;;;4.40;99.90;;;;;;5069978;28;20251;-69
2023/01/24 09:51:44;;;;;;;3.50;3.30;;;4.40;99.90;;;;;;5056393;28;20227;-66
2023/01/24 09:54:18;;;;;;;4.00;3.80;;;4.40;99.90;;;;;;5054278;28;20207;-65
2023/01/24 09:56:47;;;;;;;3.50;3.30;;;4.40;99.90;;;;;;5053289;28;20307;-68
2023/01/24 09:59:22;;;;;;;3.73;3.53;;;4.40;99.90;;;;;;5052823;28;20254;-65
2023/01/24 10:01:50;;;;;;;3.87;3.67;;;4.40;99.90;;;;;;5052951;28;20223;-65
2023/01/24 10:04:20;;;;;;;3.60;3.40;;;4.40;99.90;;;;;;5053747;28;20207;-67
2023/01/24 10:07:12;;;;;;;4.10;3.80;;;4.40;99.90;;;;;;5052806;28;20224;-66
2023/01/24 10:09:51;;;;;;;4.30;4.00;;;4.50;99.90;;;;;;5052881;28;20207;-65
2023/01/24 10:12:35;;;;;;;3.70;3.40;;;4.50;99.90;;;;;;5052625;28;20238;-67
2023/01/24 10:15:16;;;;;;;4.00;3.70;;;4.50;99.90;;;;;;5051969;28;20204;-68
2023/01/24 10:17:55;;;;;;;3.87;3.67;;;4.50;99.90;;;;;;5055018;28;20204;-64
2023/01/24 10:20:45;;;;;;;3.73;3.53;;;4.50;99.90;;;;;;5055106;28;20228;-64
2023/01/24 10:23:15;;;;;;;4.03;3.83;;;4.50;99.90;;;;;;5036373;28;20208;-65
2023/01/24 10:25:51;;;;;;;3.77;3.57;;;4.60;99.90;;;;;;5052991;28;20208;-65
2023/01/24 10:28:23;;;;;;;3.83;3.63;;;4.70;99.90;;;;;;5053191;28;20311;-65
2023/01/24 10:30:57;;;;;;;3.40;3.20;;;4.70;99.90;;;;;;5051627;28;20231;-66
2023/01/24 10:33:30;;;;;;;3.70;3.50;;;4.80;99.90;;;;;;5056677;28;20208;-68
2023/01/24 10:35:59;;;;;;;3.63;3.30;;;5.20;99.90;;;;;;5058615;28;20199;-70
2023/01/24 10:38:27;;;;;;;3.30;3.10;;;5.10;99.90;;;;;;5059668;28;20204;-66
2023/01/24 10:40:56;;;;;;;3.97;3.67;;;5.00;99.90;;;;;;5056783;28;20227;-65
2023/01/24 10:43:26;;;;;;;3.63;3.43;;;5.00;99.90;;;;;;5054197;28;20204;-65
2023/01/24 10:46:13;;;;;;;3.63;3.43;;;5.00;99.90;;;;;;5057148;28;20196;-64
2023/01/24 10:48:43;;;;;;;3.70;3.47;;;5.10;99.90;;;;;;5053804;28;20222;-66
2023/01/24 10:51:13;;;;;;;3.77;3.50;;;5.10;99.90;;;;;;5055958;28;20216;-66
2023/01/24 10:53:40;;;;;;;3.40;3.20;;;5.20;99.90;;;;;;5056016;28;20742;-66
2023/01/24 10:56:08;;;;;;;3.77;3.47;;;5.40;99.90;;;;;;5054645;28;20625;-65
2023/01/24 10:58:37;;;;;;;3.33;3.13;;;5.40;99.90;;;;;;5053892;28;20243;-66
2023/01/24 11:01:09;;;;;;;3.13;2.93;;;5.60;99.90;;;;;;5052370;28;20216;-67
2023/01/24 11:03:40;;;;;;;3.03;2.83;;;5.70;99.90;;;;;;5052511;28;20204;-65
2023/01/24 11:06:24;;;;;;;3.20;3.00;;;5.80;99.90;;;;;;5052104;28;20211;-69
2023/01/24 11:08:55;;;;;;;3.00;2.80;;;5.80;99.90;;;;;;5051600;28;20270;-66
2023/01/24 11:11:25;;;;;;;3.40;3.20;;;5.80;99.90;;;;;;5049882;28;20706;-67
2023/01/24 11:13:56;;;;;;;3.00;2.80;;;5.70;99.90;;;;;;5053733;28;20536;-66
2023/01/24 11:16:28;;;;;;;3.13;2.93;;;5.70;99.90;;;;;;5049968;28;20207;-66
2023/01/24 11:18:59;;;;;;;3.53;3.33;;;5.70;99.90;;;;;;5051257;28;20204;-65
2023/01/24 11:21:27;;;;;;;3.20;3.00;;;5.70;99.90;;;;;;5051864;28;20230;-67
2023/01/24 11:24:08;;;;;;;3.30;3.10;;;5.60;99.90;;;;;;5051301;28;20211;-66
2023/01/24 11:26:37;;;;;;;3.27;3.07;;;5.70;99.90;;;;;;5050182;28;20193;-68
2023/01/24 11:29:06;;;;;;;3.40;3.20;;;5.80;99.90;;;;;;5050628;28;20298;-66
2023/01/24 11:31:39;;;;;;;3.20;3.00;;;5.80;99.90;;;;;;5060393;28;20622;-65
2023/01/24 11:34:36;;;;;;;3.30;3.10;;;5.80;99.90;;;;;;5063242;28;20208;-66
2023/01/24 11:37:36;;;;;;;3.63;3.33;;;5.80;99.90;;;;;;5031830;28;20204;-66
2023/01/24 11:40:19;;;;;;;3.30;3.10;;;5.80;99.90;;;;;;5049756;28;20192;-67
2023/01/24 11:42:54;;;;;;;3.13;2.93;;;5.70;99.90;;;;;;5049123;28;20199;-66
2023/01/24 11:45:33;;;;;;;3.37;3.17;;;5.80;99.90;;;;;;5047795;28;20323;-67
2023/01/24 11:48:12;;;;;;;3.20;3.00;;;5.80;99.90;;;;;;5051555;28;20226;-66
2023/01/24 11:50:48;;;;;;;3.27;3.07;;;5.90;99.90;;;;;;5053347;28;20212;-67
2023/01/24 11:53:36;;;;;;;3.07;2.90;;;5.80;99.90;;;;;;5054516;28;20642;-66
2023/01/24 11:56:13;;;;;;;3.07;2.87;;;5.80;99.90;;;;;;5049772;28;20206;-66
2023/01/24 11:58:53;;;;;;;3.10;2.90;;;5.90;99.90;;;;;;5048237;28;20188;-67
2023/01/24 12:01:29;;;;;;;2.90;2.70;;;6.00;99.90;;;;;;5047443;28;20242;-67
2023/01/24 12:04:13;;;;;;;2.90;2.80;;;6.10;99.90;;;;;;5050935;28;20616;-65
2023/01/24 12:06:50;;;;;;;2.80;2.60;;;6.10;99.90;;;;;;5049238;28;20278;-71
2023/01/24 12:09:21;;;;;;;3.30;3.10;;;6.10;99.90;;;;;;5051760;28;20265;-65
2023/01/24 12:11:58;;;;;;;3.07;2.87;;;6.10;99.90;;;;;;5050558;28;20223;-67
2023/01/24 12:15:00;;;;;;;2.70;2.60;;;6.10;99.90;;;;;;5047690;28;20199;-64
2023/01/24 12:17:46;;;;;;;3.10;2.93;;;6.10;99.90;;;;;;5047726;28;20621;-66
2023/01/24 12:20:34;;;;;;;2.60;2.50;;;6.10;99.90;;;;;;5048752;28;20582;-65
2023/01/24 12:23:11;;;;;;;3.13;2.93;;;6.10;99.90;;;;;;5047547;28;20196;-64
2023/01/24 12:25:42;;;;;;;3.13;2.93;;;6.10;99.90;;;;;;5050548;28;20601;-68
2023/01/24 12:28:15;;;;;;;2.83;2.70;;;6.20;99.90;;;;;;5050336;28;20224;-65
2023/01/24 12:30:44;;;;;;;3.03;2.83;;;6.20;99.90;;;;;;5046850;28;20216;-67
2023/01/24 12:33:23;;;;;;;2.80;2.60;;;6.10;99.90;;;;;;5049306;28;20209;-65
2023/01/24 12:35:55;;;;;;;3.03;2.83;;;6.10;99.90;;;;;;5047925;28;20202;-68
2023/01/24 12:38:27;;;;;;;3.23;3.03;;;6.10;99.90;;;;;;5046921;28;20196;-67
2023/01/24 12:41:00;;;;;;;3.50;3.30;;;6.10;99.90;;;;;;5048631;28;20274;-65
2023/01/24 12:43:35;;;;;;;3.00;2.90;;;6.10;99.90;;;;;;5048492;28;20204;-65
2023/01/24 12:46:10;;;;;;;2.77;2.67;;;6.00;99.90;;;;;;5046850;28;20200;-64
2023/01/24 12:48:41;;;;;;;3.10;2.90;;;6.00;99.90;;;;;;5049346;28;20223;-67
2023/01/24 12:51:21;;;;;;;3.10;2.90;;;6.00;99.90;;;;;;5049661;28;20307;-66
2023/01/24 12:53:58;;;;;;;3.00;2.80;;;6.00;99.90;;;;;;5048442;28;20472;-67
2023/01/24 12:56:32;;;;;;;3.40;3.20;;;6.00;99.90;;;;;;5047218;28;20203;-67
2023/01/24 12:58:59;;;;;;;2.70;2.60;;;6.10;99.90;;;;;;5049401;28;20192;-67
2023/01/24 13:01:40;;;;;;;3.20;3.00;;;6.00;99.90;;;;;;5051740;28;20311;-66
2023/01/24 13:04:20;;;;;;;2.80;2.70;;;6.00;99.90;;;;;;5050470;28;20199;-65
2023/01/24 13:06:59;;;;;;;2.83;2.73;;;6.00;99.90;;;;;;5047303;28;20192;-66
2023/01/24 13:09:35;;;;;;;2.90;2.80;;;6.20;99.90;;;;;;5048155;28;20200;-65
2023/01/24 13:12:05;;;;;;;2.70;2.50;;;6.30;99.90;;;;;;5048739;28;20224;-67
2023/01/24 13:14:37;;;;;;;2.83;2.73;;;6.30;99.90;;;;;;5055017;28;20210;-67
2023/01/24 13:17:44;;;;;;;3.07;2.87;;;6.30;99.90;;;;;;5064283;28;20196;-65
2023/01/24 13:20:32;;;;;;;3.07;2.77;;;6.10;99.90;;;;;;5043615;28;20259;-66
2023/01/24 13:23:16;;;;;;;2.80;2.70;;;6.10;99.90;;;;;;5054417;28;20569;-67
2023/01/24 13:26:22;;;;;;;2.83;2.63;;;6.20;99.90;;;;;;5051019;28;20596;-68
2023/01/24 13:28:58;;;;;;;2.70;2.60;;;6.20;99.90;;;;;;5053908;28;20507;-65
2023/01/24 13:31:30;;;;;;;3.10;2.90;;;6.30;99.90;;;;;;5054755;28;20235;-66
2023/01/24 13:34:02;;;;;;;2.83;2.63;;;6.30;99.90;;;;;;5051375;28;20201;-66
2023/01/24 13:36:34;;;;;;;3.10;2.90;;;6.30;99.90;;;;;;5051218;28;20249;-67
2023/01/24 13:39:03;;;;;;;2.83;2.73;;;6.40;99.90;;;;;;5052997;28;20216;-66
2023/01/24 13:41:36;;;;;;;2.80;2.60;;;6.40;99.90;;;;;;5052795;28;20307;-68
2023/01/24 13:44:04;;;;;;;2.40;2.30;;;6.50;99.90;;;;;;5050421;28;20291;-68
2023/01/24 13:47:03;;;;;;;2.57;2.37;;;6.50;99.90;;;;;;5053844;28;20291;-67
2023/01/24 13:49:38;;;;;;;2.70;2.60;;;6.60;99.90;;;;;;5054019;28;20198;-64